createdAt,value
2017-02-10T00:00:01.947Z,-2.46
2017-02-10T00:01:01.937Z,-2.5
2017-02-10T00:02:01.916Z,-2.5
2017-02-10T00:03:01.878Z,-2.39
2017-02-10T00:04:01.875Z,-2.5
2017-02-10T00:05:01.858Z,-2.43
2017-02-10T00:06:01.835Z,-2.43
2017-02-10T00:07:01.820Z,-2.47
2017-02-10T00:08:01.809Z,-2.46
2017-02-10T00:09:01.369Z,-2.39
2017-02-10T00:10:01.756Z,-2.37
2017-02-10T00:11:01.745Z,-2.47
2017-02-10T00:12:01.723Z,-2.44
2017-02-10T00:13:01.307Z,-2.44
2017-02-10T00:14:01.681Z,-2.42
2017-02-10T00:15:01.664Z,-2.49
2017-02-10T00:16:01.649Z,-2.44
2017-02-10T00:17:01.626Z,-2.54
2017-02-10T00:18:01.609Z,-2.47
2017-02-10T00:19:01.594Z,-2.55
2017-02-10T00:20:01.566Z,-2.47
2017-02-10T00:21:01.564Z,-2.53
2017-02-10T00:22:01.538Z,-2.53
2017-02-10T00:23:01.512Z,-2.44
2017-02-10T00:24:01.502Z,-2.5
2017-02-10T00:25:01.479Z,-2.46
2017-02-10T00:26:01.461Z,-2.46
2017-02-10T00:27:01.448Z,-2.49
2017-02-10T00:28:01.017Z,-2.57
2017-02-10T00:29:01.006Z,-2.46
2017-02-10T00:30:01.385Z,-2.5
2017-02-10T00:31:00.964Z,-2.43
2017-02-10T00:32:00.951Z,-2.43
2017-02-10T00:33:01.325Z,-2.49
2017-02-10T00:34:01.301Z,-2.5
2017-02-10T00:35:00.894Z,-2.4
2017-02-10T00:36:01.275Z,-2.47
2017-02-10T00:37:01.245Z,-2.39
2017-02-10T00:38:01.225Z,-2.42
2017-02-10T00:39:01.215Z,-2.4
2017-02-10T00:40:01.196Z,-2.4
2017-02-10T00:41:01.207Z,-2.34
2017-02-10T00:42:01.154Z,-2.37
2017-02-10T00:43:01.142Z,-2.4
2017-02-10T00:44:01.115Z,-2.36
2017-02-10T00:45:01.104Z,-2.39
2017-02-10T00:46:00.686Z,-2.36
2017-02-10T00:47:00.805Z,-2.39
2017-02-10T00:48:01.693Z,-2.37
2017-02-10T00:49:01.021Z,-2.36
2017-02-10T00:50:01.001Z,-2.34
2017-02-10T00:51:00.981Z,-2.36
2017-02-10T00:52:00.969Z,-2.34
2017-02-10T00:53:00.952Z,-2.36
2017-02-10T00:54:00.929Z,-2.32
2017-02-10T00:55:00.914Z,-2.4
2017-02-10T00:56:00.500Z,-2.37
2017-02-10T00:57:00.881Z,-2.39
2017-02-10T00:58:01.261Z,-2.42
2017-02-10T00:59:00.836Z,-2.39
2017-02-10T01:00:00.811Z,-2.43
2017-02-10T01:01:00.810Z,-2.34
2017-02-10T01:02:01.214Z,-2.4
2017-02-10T01:03:00.803Z,-2.42
2017-02-10T01:04:00.923Z,-2.4
2017-02-10T01:05:01.278Z,-2.46
2017-02-10T01:06:01.335Z,-2.53
2017-02-10T01:07:00.696Z,-2.53
2017-02-10T01:08:01.383Z,-2.5
2017-02-10T01:09:01.206Z,-2.5
2017-02-10T01:10:00.660Z,-2.42
2017-02-10T01:11:01.264Z,-2.53
2017-02-10T01:12:00.866Z,-2.43
2017-02-10T01:13:00.662Z,-2.5
2017-02-10T01:14:01.209Z,-2.54
2017-02-10T01:15:01.207Z,-2.44
2017-02-10T01:16:01.081Z,-2.4
2017-02-10T01:17:01.034Z,-2.53
2017-02-10T01:18:00.822Z,-2.43
2017-02-10T01:19:00.607Z,-2.37
2017-02-10T01:20:01.081Z,-2.36
2017-02-10T01:21:01.055Z,-2.39
2017-02-10T01:22:00.879Z,-2.37
2017-02-10T01:23:00.291Z,-2.39
2017-02-10T01:24:00.740Z,-2.5
2017-02-10T01:25:01.001Z,-2.43
2017-02-10T01:26:01.058Z,-2.47
2017-02-10T01:27:00.646Z,-2.5
2017-02-10T01:27:59.930Z,-2.46
2017-02-10T01:29:01.154Z,-2.44
2017-02-10T01:30:00.800Z,-2.62
2017-02-10T01:31:00.248Z,-2.64
2017-02-10T01:32:01.179Z,-2.7
2017-02-10T01:33:00.601Z,-2.79
2017-02-10T01:34:00.758Z,-2.85
2017-02-10T01:35:00.631Z,-2.91
2017-02-10T01:36:00.784Z,-2.91
2017-02-10T01:37:00.553Z,-3.06
2017-02-10T01:38:00.601Z,-3.03
2017-02-10T01:39:00.490Z,-3.12
2017-02-10T01:40:29.173Z,-3.24
2017-02-10T01:41:00.137Z,-3.29
2017-02-10T01:42:00.103Z,-3.35
2017-02-10T01:42:59.633Z,-3.47
2017-02-10T01:44:00.523Z,-3.42
2017-02-10T01:44:59.893Z,-3.48
2017-02-10T01:46:00.228Z,-3.5
2017-02-10T01:46:59.284Z,-3.53
2017-02-10T01:48:00.403Z,-3.53
2017-02-10T01:49:00.027Z,-3.69
2017-02-10T01:49:59.947Z,-3.71
2017-02-10T01:50:59.902Z,-3.75
2017-02-10T01:51:59.841Z,-3.87
2017-02-10T01:52:59.817Z,-3.83
2017-02-10T01:53:59.804Z,-3.86
2017-02-10T01:54:59.766Z,-3.87
2017-02-10T01:55:59.723Z,-3.83
2017-02-10T01:56:59.767Z,-3.88
2017-02-10T01:57:59.773Z,-3.88
2017-02-10T01:58:59.303Z,-4.01
2017-02-10T01:59:59.710Z,-3.91
2017-02-10T02:00:59.669Z,-4
2017-02-10T02:01:59.642Z,-4
2017-02-10T02:02:59.635Z,-4.05
2017-02-10T02:03:59.631Z,-4.09
2017-02-10T02:04:59.588Z,-4.08
2017-02-10T02:05:59.572Z,-4.12
2017-02-10T02:06:59.619Z,-4.19
2017-02-10T02:07:59.129Z,-4.16
2017-02-10T02:08:59.515Z,-4.29
2017-02-10T02:09:59.504Z,-4.19
2017-02-10T02:10:59.472Z,-4.23
2017-02-10T02:11:59.457Z,-4.27
2017-02-10T02:12:59.426Z,-4.3
2017-02-10T02:13:59.418Z,-4.32
2017-02-10T02:14:59.390Z,-4.25
2017-02-10T02:15:59.384Z,-4.33
2017-02-10T02:16:58.962Z,-4.34
2017-02-10T02:17:59.345Z,-4.33
2017-02-10T02:18:59.319Z,-4.3
2017-02-10T02:19:59.305Z,-4.51
2017-02-10T02:20:59.285Z,-4.48
2017-02-10T02:21:59.263Z,-4.44
2017-02-10T02:22:59.245Z,-4.45
2017-02-10T02:23:59.214Z,-4.53
2017-02-10T02:24:59.201Z,-4.53
2017-02-10T02:25:58.767Z,-4.5
2017-02-10T02:26:59.163Z,-4.55
2017-02-10T02:27:59.133Z,-4.59
2017-02-10T02:28:59.154Z,-4.57
2017-02-10T02:29:59.095Z,-4.51
2017-02-10T02:30:59.085Z,-4.65
2017-02-10T02:31:59.062Z,-4.62
2017-02-10T02:32:59.040Z,-4.68
2017-02-10T02:33:59.023Z,-4.65
2017-02-10T02:34:59.008Z,-4.55
2017-02-10T02:35:58.591Z,-4.62
2017-02-10T02:36:58.969Z,-4.68
2017-02-10T02:37:58.945Z,-4.61
2017-02-10T02:38:58.929Z,-4.57
2017-02-10T02:39:59.001Z,-4.57
2017-02-10T02:40:58.875Z,-4.62
2017-02-10T02:41:58.858Z,-4.73
2017-02-10T02:42:58.839Z,-4.63
2017-02-10T02:43:58.827Z,-4.65
2017-02-10T02:44:58.794Z,-4.61
2017-02-10T02:45:58.778Z,-4.72
2017-02-10T02:46:58.762Z,-4.72
2017-02-10T02:47:58.745Z,-4.63
2017-02-10T02:48:58.727Z,-4.55
2017-02-10T02:49:58.714Z,-4.62
2017-02-10T02:50:58.681Z,-4.65
2017-02-10T02:51:58.673Z,-4.51
2017-02-10T02:52:58.650Z,-4.55
2017-02-10T02:53:58.623Z,-4.55
2017-02-10T02:54:58.608Z,-4.59
2017-02-10T02:55:58.580Z,-4.61
2017-02-10T02:56:58.572Z,-4.48
2017-02-10T02:57:58.569Z,-4.43
2017-02-10T02:58:58.547Z,-4.41
2017-02-10T02:59:58.526Z,-4.41
2017-02-10T03:00:58.496Z,-4.43
2017-02-10T03:01:58.475Z,-4.43
2017-02-10T03:02:58.457Z,-4.32
2017-02-10T03:03:58.453Z,-4.37
2017-02-10T03:04:58.414Z,-4.32
2017-02-10T03:05:58.398Z,-4.5
2017-02-10T03:06:57.984Z,-4.34
2017-02-10T03:07:58.366Z,-4.41
2017-02-10T03:08:58.348Z,-4.34
2017-02-10T03:09:58.324Z,-4.47
2017-02-10T03:10:58.304Z,-4.33
2017-02-10T03:11:58.279Z,-4.48
2017-02-10T03:12:58.259Z,-4.47
2017-02-10T03:13:58.234Z,-4.39
2017-02-10T03:14:58.224Z,-4.32
2017-02-10T03:15:58.197Z,-4.27
2017-02-10T03:16:58.177Z,-4.26
2017-02-10T03:17:58.158Z,-4.37
2017-02-10T03:18:58.136Z,-4.26
2017-02-10T03:19:58.119Z,-4.23
2017-02-10T03:20:58.098Z,-4.33
2017-02-10T03:21:58.077Z,-4.3
2017-02-10T03:22:58.063Z,-4.19
2017-02-10T03:23:58.044Z,-4.19
2017-02-10T03:24:58.024Z,-4.15
2017-02-10T03:25:58.001Z,-4.26
2017-02-10T03:26:57.985Z,-4.19
2017-02-10T03:27:57.961Z,-4.14
2017-02-10T03:28:57.135Z,-4.09
2017-02-10T03:29:57.928Z,-4.15
2017-02-10T03:30:57.914Z,-4.16
2017-02-10T03:31:57.880Z,-4.16
2017-02-10T03:32:57.859Z,-4.01
2017-02-10T03:33:57.851Z,-4.01
2017-02-10T03:34:57.829Z,-4.05
2017-02-10T03:35:57.807Z,-3.96
2017-02-10T03:36:57.778Z,-4.05
2017-02-10T03:37:57.760Z,-3.93
2017-02-10T03:38:57.744Z,-3.9
2017-02-10T03:39:57.728Z,-3.98
2017-02-10T03:40:57.699Z,-3.91
2017-02-10T03:41:57.677Z,-3.9
2017-02-10T03:42:57.679Z,-3.94
2017-02-10T03:43:57.251Z,-3.91
2017-02-10T03:44:57.623Z,-3.93
2017-02-10T03:45:57.617Z,-3.9
2017-02-10T03:46:57.589Z,-3.88
2017-02-10T03:47:57.564Z,-3.93
2017-02-10T03:48:57.546Z,-3.83
2017-02-10T03:49:57.533Z,-3.86
2017-02-10T03:50:57.106Z,-3.83
2017-02-10T03:51:57.087Z,-3.9
2017-02-10T03:52:57.065Z,-3.86
2017-02-10T03:53:57.043Z,-3.87
2017-02-10T03:54:57.436Z,-3.87
2017-02-10T03:55:57.012Z,-3.79
2017-02-10T03:56:56.987Z,-3.86
2017-02-10T03:57:56.974Z,-3.88
2017-02-10T03:58:57.351Z,-3.83
2017-02-10T03:59:57.326Z,-3.83
2017-02-10T04:00:57.322Z,-3.8
2017-02-10T04:01:57.307Z,-3.88
2017-02-10T04:02:57.270Z,-3.86
2017-02-10T04:03:57.249Z,-3.86
2017-02-10T04:04:57.236Z,-3.87
2017-02-10T04:05:57.211Z,-3.86
2017-02-10T04:06:57.195Z,-3.88
2017-02-10T04:07:57.179Z,-3.83
2017-02-10T04:08:57.163Z,-3.83
2017-02-10T04:09:57.132Z,-3.79
2017-02-10T04:10:57.119Z,-3.83
2017-02-10T04:11:57.097Z,-3.91
2017-02-10T04:12:57.077Z,-3.83
2017-02-10T04:13:57.063Z,-3.87
2017-02-10T04:14:57.033Z,-3.83
2017-02-10T04:15:57.012Z,-3.79
2017-02-10T04:16:56.993Z,-3.87
2017-02-10T04:17:56.972Z,-3.79
2017-02-10T04:18:56.957Z,-3.86
2017-02-10T04:19:56.933Z,-3.8
2017-02-10T04:20:56.967Z,-3.82
2017-02-10T04:21:56.900Z,-3.8
2017-02-10T04:22:56.876Z,-3.8
2017-02-10T04:23:56.864Z,-3.86
2017-02-10T04:24:56.838Z,-3.76
2017-02-10T04:25:56.814Z,-3.8
2017-02-10T04:26:56.800Z,-3.8
2017-02-10T04:27:56.795Z,-3.86
2017-02-10T04:28:56.766Z,-3.86
2017-02-10T04:29:56.738Z,-3.79
2017-02-10T04:30:56.717Z,-3.82
2017-02-10T04:31:56.709Z,-3.76
2017-02-10T04:32:56.687Z,-3.79
2017-02-10T04:33:56.658Z,-3.83
2017-02-10T04:34:56.635Z,-3.79
2017-02-10T04:35:56.628Z,-3.79
2017-02-10T04:36:56.200Z,-3.82
2017-02-10T04:37:56.591Z,-3.8
2017-02-10T04:38:56.567Z,-3.82
2017-02-10T04:39:56.542Z,-3.68
2017-02-10T04:40:56.529Z,-3.66
2017-02-10T04:41:56.502Z,-3.71
2017-02-10T04:42:56.488Z,-3.68
2017-02-10T04:43:56.470Z,-3.68
2017-02-10T04:44:56.450Z,-3.68
2017-02-10T04:45:56.424Z,-3.69
2017-02-10T04:46:56.409Z,-3.63
2017-02-10T04:47:56.392Z,-3.68
2017-02-10T04:48:56.370Z,-3.72
2017-02-10T04:49:56.347Z,-3.58
2017-02-10T04:50:56.323Z,-3.58
2017-02-10T04:51:56.303Z,-3.56
2017-02-10T04:52:56.282Z,-3.56
2017-02-10T04:53:56.269Z,-3.61
2017-02-10T04:54:56.253Z,-3.56
2017-02-10T04:55:56.266Z,-3.63
2017-02-10T04:56:56.220Z,-3.53
2017-02-10T04:57:56.217Z,-3.54
2017-02-10T04:58:56.168Z,-3.5
2017-02-10T04:59:56.164Z,-3.51
2017-02-10T05:00:56.125Z,-3.53
2017-02-10T05:01:56.112Z,-3.63
2017-02-10T05:02:56.089Z,-3.76
2017-02-10T05:03:56.101Z,-3.75
2017-02-10T05:04:56.047Z,-3.69
2017-02-10T05:05:56.030Z,-3.8
2017-02-10T05:06:56.016Z,-3.61
2017-02-10T05:07:55.999Z,-3.77
2017-02-10T05:08:55.980Z,-3.71
2017-02-10T05:09:55.957Z,-3.66
2017-02-10T05:10:55.940Z,-3.6
2017-02-10T05:11:55.911Z,-3.69
2017-02-10T05:12:55.893Z,-3.65
2017-02-10T05:13:55.871Z,-3.79
2017-02-10T05:14:55.863Z,-3.79
2017-02-10T05:15:55.851Z,-3.75
2017-02-10T05:16:55.822Z,-3.66
2017-02-10T05:17:55.801Z,-3.68
2017-02-10T05:18:55.776Z,-3.66
2017-02-10T05:19:55.756Z,-3.71
2017-02-10T05:20:55.743Z,-3.53
2017-02-10T05:21:55.723Z,-3.6
2017-02-10T05:22:55.710Z,-3.6
2017-02-10T05:23:55.677Z,-3.66
2017-02-10T05:24:55.664Z,-3.57
2017-02-10T05:25:55.646Z,-3.57
2017-02-10T05:26:55.622Z,-3.63
2017-02-10T05:27:55.596Z,-3.58
2017-02-10T05:28:55.589Z,-3.51
2017-02-10T05:29:55.558Z,-3.66
2017-02-10T05:30:55.539Z,-3.66
2017-02-10T05:31:55.531Z,-3.54
2017-02-10T05:32:55.504Z,-3.54
2017-02-10T05:33:55.489Z,-3.47
2017-02-10T05:34:55.580Z,-3.53
2017-02-10T05:35:55.442Z,-3.51
2017-02-10T05:36:55.432Z,-3.45
2017-02-10T05:37:55.412Z,-3.51
2017-02-10T05:38:54.991Z,-3.56
2017-02-10T05:39:55.393Z,-3.43
2017-02-10T05:40:55.351Z,-3.48
2017-02-10T05:41:55.333Z,-3.43
2017-02-10T05:42:55.306Z,-3.42
2017-02-10T05:43:54.882Z,-3.38
2017-02-10T05:44:55.363Z,-3.36
2017-02-10T05:45:55.248Z,-3.38
2017-02-10T05:46:55.226Z,-3.36
2017-02-10T05:47:55.207Z,-3.45
2017-02-10T05:48:55.194Z,-3.33
2017-02-10T05:49:55.169Z,-3.35
2017-02-10T05:50:54.746Z,-3.35
2017-02-10T05:51:55.131Z,-3.28
2017-02-10T05:52:55.115Z,-3.28
2017-02-10T05:53:55.098Z,-3.14
2017-02-10T05:54:54.771Z,-3.19
2017-02-10T05:55:55.052Z,-3.12
2017-02-10T05:56:55.049Z,-3.14
2017-02-10T05:57:55.020Z,-3.04
2017-02-10T05:58:54.992Z,-3.04
2017-02-10T05:59:54.981Z,-3.01
2017-02-10T06:00:54.953Z,-3.11
2017-02-10T06:01:54.930Z,-3.14
2017-02-10T06:02:54.925Z,-3.04
2017-02-10T06:03:54.903Z,-3.03
2017-02-10T06:04:54.983Z,-3.11
2017-02-10T06:05:54.467Z,-3.03
2017-02-10T06:06:54.846Z,-3.07
2017-02-10T06:07:54.824Z,-3.07
2017-02-10T06:08:54.809Z,-3.15
2017-02-10T06:09:54.784Z,-3.17
2017-02-10T06:10:54.369Z,-3.09
2017-02-10T06:11:54.341Z,-3.18
2017-02-10T06:12:54.727Z,-3.15
2017-02-10T06:13:54.700Z,-3.12
2017-02-10T06:14:54.383Z,-3.18
2017-02-10T06:15:54.673Z,-3.14
2017-02-10T06:16:54.648Z,-3.17
2017-02-10T06:17:54.633Z,-3.17
2017-02-10T06:18:54.611Z,-3.18
2017-02-10T06:19:54.685Z,-3.06
2017-02-10T06:20:54.568Z,-3.21
2017-02-10T06:21:54.569Z,-3.04
2017-02-10T06:22:54.529Z,-3.17
2017-02-10T06:23:54.515Z,-3.03
2017-02-10T06:24:54.490Z,-2.99
2017-02-10T06:25:54.469Z,-3.11
2017-02-10T06:26:54.448Z,-2.99
2017-02-10T06:27:54.472Z,-2.96
2017-02-10T06:28:54.411Z,-3
2017-02-10T06:29:54.493Z,-2.99
2017-02-10T06:30:54.376Z,-2.97
2017-02-10T06:31:54.361Z,-2.93
2017-02-10T06:32:54.348Z,-2.93
2017-02-10T06:33:54.315Z,-2.9
2017-02-10T06:34:54.401Z,-2.85
2017-02-10T06:35:54.275Z,-2.86
2017-02-10T06:36:54.266Z,-2.81
2017-02-10T06:37:54.240Z,-2.83
2017-02-10T06:38:54.224Z,-2.68
2017-02-10T06:39:54.200Z,-2.72
2017-02-10T06:40:54.183Z,-2.67
2017-02-10T06:41:54.185Z,-2.68
2017-02-10T06:42:54.147Z,-2.62
2017-02-10T06:43:54.140Z,-2.61
2017-02-10T06:44:54.207Z,-2.5
2017-02-10T06:45:54.084Z,-2.49
2017-02-10T06:46:54.069Z,-2.47
2017-02-10T06:47:54.059Z,-2.44
2017-02-10T06:48:54.037Z,-2.4
2017-02-10T06:49:54.023Z,-2.39
2017-02-10T06:50:53.995Z,-2.43
2017-02-10T06:51:53.970Z,-2.37
2017-02-10T06:52:53.959Z,-2.39
2017-02-10T06:53:53.935Z,-2.39
2017-02-10T06:54:53.928Z,-2.24
2017-02-10T06:55:53.903Z,-2.34
2017-02-10T06:56:53.886Z,-2.17
2017-02-10T06:57:53.864Z,-2.2
2017-02-10T06:58:53.857Z,-2.21
2017-02-10T06:59:53.830Z,-2.06
2017-02-10T07:00:53.800Z,-1.99
2017-02-10T07:01:53.783Z,-2.1
2017-02-10T07:02:53.770Z,-2.03
2017-02-10T07:03:53.757Z,-1.97
2017-02-10T07:04:53.735Z,-2.07
2017-02-10T07:05:53.709Z,-2
2017-02-10T07:06:53.690Z,-1.97
2017-02-10T07:07:53.674Z,-1.96
2017-02-10T07:08:53.653Z,-1.92
2017-02-10T07:09:53.638Z,-1.99
2017-02-10T07:10:53.621Z,-1.86
2017-02-10T07:11:53.611Z,-1.81
2017-02-10T07:12:53.580Z,-1.84
2017-02-10T07:13:53.559Z,-1.84
2017-02-10T07:14:53.546Z,-1.74
2017-02-10T07:15:53.529Z,-1.68
2017-02-10T07:16:53.510Z,-1.78
2017-02-10T07:17:53.498Z,-1.7
2017-02-10T07:18:53.073Z,-1.74
2017-02-10T07:19:53.447Z,-1.68
2017-02-10T07:20:53.437Z,-1.61
2017-02-10T07:21:53.418Z,-1.6
2017-02-10T07:22:53.405Z,-1.52
2017-02-10T07:23:53.383Z,-1.56
2017-02-10T07:24:53.357Z,-1.43
2017-02-10T07:25:53.337Z,-1.5
2017-02-10T07:26:53.324Z,-1.43
2017-02-10T07:27:53.313Z,-1.48
2017-02-10T07:28:53.279Z,-1.53
2017-02-10T07:29:53.278Z,-1.55
2017-02-10T07:30:53.248Z,-1.43
2017-02-10T07:31:53.226Z,-1.45
2017-02-10T07:32:52.806Z,-1.34
2017-02-10T07:33:53.196Z,-1.37
2017-02-10T07:34:53.187Z,-1.35
2017-02-10T07:35:53.172Z,-1.34
2017-02-10T07:36:53.143Z,-1.27
2017-02-10T07:37:53.121Z,-1.27
2017-02-10T07:38:53.102Z,-1.22
2017-02-10T07:39:52.693Z,-1.22
2017-02-10T07:40:52.665Z,-1.19
2017-02-10T07:41:53.058Z,-1.11
2017-02-10T07:42:52.624Z,-1.13
2017-02-10T07:43:52.608Z,-1.07
2017-02-10T07:44:53.003Z,-1.1
2017-02-10T07:45:52.974Z,-1.1
2017-02-10T07:46:52.963Z,-0.98
2017-02-10T07:47:52.934Z,-1.01
2017-02-10T07:48:52.920Z,-0.93
2017-02-10T07:49:52.901Z,-0.96
2017-02-10T07:50:52.894Z,-0.82
2017-02-10T07:51:52.875Z,-0.85
2017-02-10T07:52:52.892Z,-0.85
2017-02-10T07:53:52.837Z,-0.87
2017-02-10T07:54:52.810Z,-0.79
2017-02-10T07:55:52.803Z,-0.79
2017-02-10T07:56:52.785Z,-0.8
2017-02-10T07:57:52.361Z,-0.69
2017-02-10T07:58:52.749Z,-0.74
2017-02-10T07:59:52.731Z,-0.77
2017-02-10T08:00:52.705Z,-0.8
2017-02-10T08:01:52.293Z,-0.8
2017-02-10T08:02:52.673Z,-0.8
2017-02-10T08:03:52.652Z,-0.74
2017-02-10T08:04:52.646Z,-0.76
2017-02-10T08:05:52.610Z,-0.7
2017-02-10T08:06:52.597Z,-0.82
2017-02-10T08:07:52.590Z,-0.8
2017-02-10T08:08:52.568Z,-0.77
2017-02-10T08:09:52.543Z,-0.64
2017-02-10T08:10:52.534Z,-0.67
2017-02-10T08:11:52.517Z,-0.73
2017-02-10T08:12:52.492Z,-0.64
2017-02-10T08:13:52.471Z,-0.64
2017-02-10T08:14:52.454Z,-0.66
2017-02-10T08:15:52.444Z,-0.66
2017-02-10T08:16:52.022Z,-0.56
2017-02-10T08:17:52.402Z,-0.58
2017-02-10T08:18:52.383Z,-0.58
2017-02-10T08:19:52.367Z,-0.59
2017-02-10T08:20:52.351Z,-0.51
2017-02-10T08:21:52.329Z,-0.54
2017-02-10T08:22:52.321Z,-0.43
2017-02-10T08:23:51.895Z,-0.34
2017-02-10T08:24:52.276Z,-0.33
2017-02-10T08:25:52.265Z,-0.27
2017-02-10T08:26:52.236Z,-0.2
2017-02-10T08:27:52.230Z,-0.34
2017-02-10T08:28:52.206Z,-0.23
2017-02-10T08:29:51.803Z,-0.2
2017-02-10T08:30:52.182Z,-0.22
2017-02-10T08:31:52.151Z,-0.3
2017-02-10T08:32:52.139Z,-0.2
2017-02-10T08:33:52.117Z,-0.19
2017-02-10T08:34:52.113Z,-0.2
2017-02-10T08:35:52.092Z,-0.27
2017-02-10T08:36:52.068Z,-0.28
2017-02-10T08:37:52.046Z,-0.36
2017-02-10T08:38:52.034Z,-0.23
2017-02-10T08:39:52.016Z,-0.2
2017-02-10T08:40:52.005Z,-0.18
2017-02-10T08:41:51.989Z,-0.12
2017-02-10T08:42:51.964Z,-0.09
2017-02-10T08:43:51.954Z,-0.13
2017-02-10T08:44:51.929Z,0.02
2017-02-10T08:45:51.910Z,0.08
2017-02-10T08:46:51.892Z,0.13
2017-02-10T08:47:51.879Z,0.27
2017-02-10T08:48:51.859Z,0.35
2017-02-10T08:49:51.851Z,0.35
2017-02-10T08:50:51.826Z,0.44
2017-02-10T08:51:51.816Z,0.53
2017-02-10T08:52:51.798Z,0.53
2017-02-10T08:53:51.772Z,0.56
2017-02-10T08:54:51.773Z,0.56
2017-02-10T08:55:51.741Z,0.58
2017-02-10T08:56:51.731Z,0.67
2017-02-10T08:57:51.705Z,0.64
2017-02-10T08:58:51.687Z,0.66
2017-02-10T08:59:51.678Z,0.69
2017-02-10T09:00:51.660Z,0.79
2017-02-10T09:01:51.638Z,0.81
2017-02-10T09:02:51.226Z,0.79
2017-02-10T09:03:51.601Z,0.96
2017-02-10T09:04:51.592Z,0.94
2017-02-10T09:05:51.570Z,0.96
2017-02-10T09:06:51.164Z,1.02
2017-02-10T09:07:51.545Z,0.94
2017-02-10T09:08:51.527Z,1.03
2017-02-10T09:09:51.106Z,1.03
2017-02-10T09:10:51.491Z,1.11
2017-02-10T09:11:51.475Z,1.28
2017-02-10T09:12:51.459Z,1.24
2017-02-10T09:13:51.436Z,1.33
2017-02-10T09:14:51.465Z,1.3
2017-02-10T09:15:51.419Z,1.36
2017-02-10T09:16:51.398Z,1.33
2017-02-10T09:17:51.383Z,1.36
2017-02-10T09:18:51.359Z,1.29
2017-02-10T09:19:51.776Z,1.3
2017-02-10T09:20:51.428Z,1.21
2017-02-10T09:21:51.309Z,1.22
2017-02-10T09:22:51.286Z,1.22
2017-02-10T09:23:51.279Z,1.3
2017-02-10T09:24:51.255Z,1.21
2017-02-10T09:25:51.245Z,1.29
2017-02-10T09:26:51.224Z,1.3
2017-02-10T09:27:51.206Z,1.22
2017-02-10T09:28:51.191Z,1.22
2017-02-10T09:29:51.180Z,1.28
2017-02-10T09:30:50.768Z,1.15
2017-02-10T09:31:51.150Z,1.18
2017-02-10T09:32:51.126Z,1.26
2017-02-10T09:33:51.107Z,1.29
2017-02-10T09:34:51.095Z,1.35
2017-02-10T09:35:51.187Z,1.22
2017-02-10T09:36:51.065Z,1.36
2017-02-10T09:37:51.041Z,1.33
2017-02-10T09:38:51.044Z,1.21
2017-02-10T09:39:51.021Z,1.12
2017-02-10T09:40:51.094Z,1.14
2017-02-10T09:41:50.989Z,1.07
2017-02-10T09:42:50.964Z,1.12
2017-02-10T09:43:50.961Z,1.04
2017-02-10T09:44:50.933Z,0.94
2017-02-10T09:45:50.920Z,0.97
2017-02-10T09:46:50.499Z,1.04
2017-02-10T09:47:50.887Z,0.99
2017-02-10T09:48:50.878Z,0.92
2017-02-10T09:49:50.846Z,0.94
2017-02-10T09:50:50.842Z,0.93
2017-02-10T09:51:50.822Z,0.86
2017-02-10T09:52:50.796Z,0.93
2017-02-10T09:53:50.793Z,0.93
2017-02-10T09:54:50.768Z,1
2017-02-10T09:55:50.852Z,1.07
2017-02-10T09:56:50.736Z,1.04
2017-02-10T09:57:50.325Z,1.1
2017-02-10T09:58:50.717Z,1.03
2017-02-10T09:59:50.694Z,0.97
2017-02-10T10:00:50.370Z,1.04
2017-02-10T10:01:50.652Z,1.02
2017-02-10T10:02:50.634Z,1.12
2017-02-10T10:03:50.633Z,1.1
2017-02-10T10:04:50.622Z,1.08
2017-02-10T10:05:50.594Z,1.14
2017-02-10T10:06:50.589Z,1.12
2017-02-10T10:07:50.559Z,1.1
2017-02-10T10:08:50.550Z,1.14
2017-02-10T10:09:50.521Z,1.24
2017-02-10T10:10:50.606Z,1.2
2017-02-10T10:11:50.498Z,1.3
2017-02-10T10:12:50.482Z,1.21
2017-02-10T10:13:50.467Z,1.28
2017-02-10T10:14:50.452Z,1.32
2017-02-10T10:15:50.435Z,1.15
2017-02-10T10:16:50.405Z,1.3
2017-02-10T10:17:50.391Z,1.38
2017-02-10T10:18:50.381Z,1.36
2017-02-10T10:19:50.366Z,1.5
2017-02-10T10:20:50.345Z,1.44
2017-02-10T10:21:50.329Z,1.42
2017-02-10T10:22:50.328Z,1.29
2017-02-10T10:23:50.307Z,1.28
2017-02-10T10:24:50.285Z,1.18
2017-02-10T10:25:50.363Z,1.35
2017-02-10T10:26:50.247Z,1.33
2017-02-10T10:27:50.239Z,1.42
2017-02-10T10:28:50.215Z,1.36
2017-02-10T10:29:50.208Z,1.44
2017-02-10T10:30:50.288Z,1.53
2017-02-10T10:31:50.175Z,1.5
2017-02-10T10:32:50.154Z,1.42
2017-02-10T10:33:50.135Z,1.57
2017-02-10T10:34:50.136Z,1.56
2017-02-10T10:35:50.113Z,1.47
2017-02-10T10:36:50.087Z,1.54
2017-02-10T10:37:50.081Z,1.51
2017-02-10T10:38:49.665Z,1.58
2017-02-10T10:39:50.051Z,1.66
2017-02-10T10:40:50.033Z,1.75
2017-02-10T10:41:50.010Z,1.83
2017-02-10T10:42:49.993Z,1.74
2017-02-10T10:43:49.985Z,1.79
2017-02-10T10:44:49.958Z,1.71
2017-02-10T10:45:49.556Z,1.9
2017-02-10T10:46:49.935Z,1.79
2017-02-10T10:47:49.917Z,1.87
2017-02-10T10:48:49.900Z,1.72
2017-02-10T10:49:49.928Z,1.74
2017-02-10T10:50:49.877Z,1.72
2017-02-10T10:51:49.853Z,1.64
2017-02-10T10:52:49.835Z,1.61
2017-02-10T10:53:49.829Z,1.54
2017-02-10T10:54:49.807Z,1.64
2017-02-10T10:55:49.810Z,1.58
2017-02-10T10:56:49.773Z,1.57
2017-02-10T10:57:49.763Z,1.66
2017-02-10T10:58:49.738Z,1.66
2017-02-10T10:59:49.733Z,1.56
2017-02-10T11:00:49.707Z,1.53
2017-02-10T11:01:49.694Z,1.44
2017-02-10T11:02:49.680Z,1.46
2017-02-10T11:03:49.673Z,1.32
2017-02-10T11:04:49.684Z,1.3
2017-02-10T11:05:49.638Z,1.38
2017-02-10T11:06:49.623Z,1.36
2017-02-10T11:07:49.608Z,1.32
2017-02-10T11:08:49.590Z,1.26
2017-02-10T11:09:49.567Z,1.32
2017-02-10T11:10:49.564Z,1.32
2017-02-10T11:11:49.544Z,1.32
2017-02-10T11:12:49.533Z,1.3
2017-02-10T11:13:49.511Z,1.22
2017-02-10T11:14:49.093Z,1.32
2017-02-10T11:15:49.472Z,1.18
2017-02-10T11:16:49.484Z,1.26
2017-02-10T11:17:49.441Z,1.22
2017-02-10T11:18:49.432Z,1.18
2017-02-10T11:19:49.419Z,1.17
2017-02-10T11:20:49.398Z,1.1
2017-02-10T11:21:49.372Z,1.14
2017-02-10T11:22:49.367Z,1.14
2017-02-10T11:23:49.352Z,1.04
2017-02-10T11:24:49.327Z,1.12
2017-02-10T11:25:49.315Z,1.11
2017-02-10T11:26:49.320Z,1.14
2017-02-10T11:27:49.293Z,1.07
2017-02-10T11:28:49.267Z,1.08
2017-02-10T11:29:49.243Z,1.08
2017-02-10T11:30:49.246Z,1.07
2017-02-10T11:31:48.820Z,1.04
2017-02-10T11:32:49.194Z,1.1
2017-02-10T11:33:49.185Z,1.04
2017-02-10T11:34:49.163Z,1.04
2017-02-10T11:35:49.149Z,1.11
2017-02-10T11:36:49.137Z,1.04
2017-02-10T11:37:49.131Z,1.11
2017-02-10T11:38:49.101Z,1.17
2017-02-10T11:39:48.687Z,1.07
2017-02-10T11:40:49.069Z,1.11
2017-02-10T11:41:49.055Z,1.11
2017-02-10T11:42:49.058Z,1.14
2017-02-10T11:43:49.027Z,1.08
2017-02-10T11:44:49.006Z,1.08
2017-02-10T11:45:48.991Z,1.1
2017-02-10T11:46:48.969Z,1.21
2017-02-10T11:47:48.963Z,1.28
2017-02-10T11:48:48.937Z,1.33
2017-02-10T11:49:48.930Z,1.36
2017-02-10T11:50:48.905Z,1.51
2017-02-10T11:51:48.891Z,1.47
2017-02-10T11:52:48.886Z,1.53
2017-02-10T11:53:48.862Z,1.6
2017-02-10T11:54:48.847Z,1.56
2017-02-10T11:55:48.831Z,1.71
2017-02-10T11:56:48.810Z,1.72
2017-02-10T11:57:48.803Z,1.75
2017-02-10T11:58:48.780Z,1.86
2017-02-10T11:59:48.760Z,1.92
2017-02-10T12:00:48.754Z,1.97
2017-02-10T12:01:48.831Z,1.94
2017-02-10T12:02:48.317Z,1.93
2017-02-10T12:03:48.696Z,1.92
2017-02-10T12:04:48.684Z,1.98
2017-02-10T12:05:48.670Z,2.04
2017-02-10T12:06:48.652Z,2.12
2017-02-10T12:07:48.639Z,1.98
2017-02-10T12:08:48.629Z,2.12
2017-02-10T12:09:48.613Z,2.15
2017-02-10T12:10:48.586Z,2.27
2017-02-10T12:11:48.580Z,2.16
2017-02-10T12:12:48.558Z,2.24
2017-02-10T12:13:48.139Z,2.16
2017-02-10T12:14:48.537Z,2.15
2017-02-10T12:15:48.516Z,2.16
2017-02-10T12:16:48.500Z,2.12
2017-02-10T12:17:48.477Z,2.13
2017-02-10T12:18:48.480Z,2.23
2017-02-10T12:19:48.461Z,2.15
2017-02-10T12:20:48.439Z,2.26
2017-02-10T12:21:48.425Z,2.29
2017-02-10T12:22:48.410Z,2.4
2017-02-10T12:23:48.398Z,2.36
2017-02-10T12:24:48.372Z,2.38
2017-02-10T12:25:48.364Z,2.4
2017-02-10T12:26:48.343Z,2.38
2017-02-10T12:27:48.323Z,2.38
2017-02-10T12:28:48.328Z,2.36
2017-02-10T12:29:48.304Z,2.41
2017-02-10T12:30:48.289Z,2.4
2017-02-10T12:31:48.273Z,2.44
2017-02-10T12:32:48.260Z,2.36
2017-02-10T12:33:48.245Z,2.31
2017-02-10T12:34:48.217Z,2.29
2017-02-10T12:35:48.204Z,2.18
2017-02-10T12:36:48.295Z,2.18
2017-02-10T12:37:48.179Z,2.16
2017-02-10T12:38:47.757Z,2.2
2017-02-10T12:39:48.139Z,2.3
2017-02-10T12:40:48.129Z,2.29
2017-02-10T12:41:48.117Z,2.29
2017-02-10T12:42:48.098Z,2.33
2017-02-10T12:43:48.082Z,2.3
2017-02-10T12:44:48.066Z,2.27
2017-02-10T12:45:48.056Z,2.23
2017-02-10T12:46:48.038Z,2.16
2017-02-10T12:47:48.026Z,2.3
2017-02-10T12:48:48.008Z,2.18
2017-02-10T12:49:47.992Z,2.15
2017-02-10T12:50:47.981Z,2.2
2017-02-10T12:51:47.958Z,2.23
2017-02-10T12:52:47.956Z,2.24
2017-02-10T12:53:47.928Z,2.18
2017-02-10T12:54:47.919Z,2.18
2017-02-10T12:55:47.542Z,2.05
2017-02-10T12:56:47.883Z,2.13
2017-02-10T12:57:47.876Z,2.09
2017-02-10T12:58:47.849Z,2.13
2017-02-10T12:59:47.839Z,1.97
2017-02-10T13:00:47.829Z,1.92
2017-02-10T13:01:47.807Z,1.83
2017-02-10T13:02:47.795Z,1.83
2017-02-10T13:03:47.379Z,1.86